BAW529 LIRN-EGLL
Flight info
| Callsign | BAW529 |
|---|---|
| Flight time | 2h 19m |
| Altitude | 36000 |
| Route | ALAXI DCT INSOX DCT AMTEL DCT CERVI/N0446F380 DCT IBODI DCT GOTED DCT TRO DCT CLM DCT KOPOR DCT ABNUR DCT DIMAL DCT ALESO |
| Aircraft | A320/M-SDE3FGIKRWXY/S |
Departure
| Time | 2026-04-30 11:42 |
|---|---|
| Airport | Naples International Airport (LIRN) |
Arrival
| Time | 2026-04-30 14:01 |
|---|---|
| Airport | London Heathrow Airport (EGLL) |
| Time | Latitude | Longitude | Altitude | Speed | Heading |
|---|---|---|---|---|---|
| 2026-04-30 11:19 | 40.87775 | 14.28010 | 298 ft | 0 kts | 141° |
| 2026-04-30 11:35 | 40.87781 | 14.28004 | 301 ft | 4 kts | 141° |
| 2026-04-30 11:35 | 40.87802 | 14.27981 | 297 ft | 4 kts | 141° |
| 2026-04-30 11:36 | 40.87819 | 14.27962 | 300 ft | 2 kts | 141° |
| 2026-04-30 11:36 | 40.87840 | 14.27947 | 297 ft | 4 kts | 181° |
| 2026-04-30 11:36 | 40.87859 | 14.27958 | 298 ft | 3 kts | 231° |
| 2026-04-30 11:36 | 40.87870 | 14.27975 | 300 ft | 0 kts | 231° |
| 2026-04-30 11:38 | 40.87865 | 14.27967 | 299 ft | 4 kts | 231° |
| 2026-04-30 11:39 | 40.87852 | 14.27916 | 299 ft | 6 kts | 277° |
| 2026-04-30 11:39 | 40.87881 | 14.27867 | 298 ft | 8 kts | 319° |
| 2026-04-30 11:39 | 40.87899 | 14.27848 | 300 ft | 0 kts | 321° |
| 2026-04-30 11:40 | 40.87902 | 14.27846 | 298 ft | 2 kts | 321° |
| 2026-04-30 11:41 | 40.87937 | 14.27807 | 298 ft | 10 kts | 321° |
| 2026-04-30 11:41 | 40.87983 | 14.27776 | 298 ft | 6 kts | 11° |
| 2026-04-30 11:41 | 40.87997 | 14.27794 | 301 ft | 0 kts | 55° |
| 2026-04-30 11:41 | 40.88057 | 14.27916 | 297 ft | 49 kts | 58° |
| 2026-04-30 11:42 | 40.88361 | 14.28563 | 279 ft | 112 kts | 58° |
| 2026-04-30 11:42 | 40.88861 | 14.29614 | 308 ft | 153 kts | 58° |
| 2026-04-30 11:42 | 40.89431 | 14.30842 | 837 ft | 157 kts | 57° |
| 2026-04-30 11:42 | 40.89984 | 14.32054 | 1534 ft | 155 kts | 60° |
| 2026-04-30 11:43 | 40.90553 | 14.33280 | 2234 ft | 153 kts | 58° |
| 2026-04-30 11:43 | 40.91105 | 14.34448 | 2838 ft | 151 kts | 57° |
| 2026-04-30 11:43 | 40.91671 | 14.35642 | 3441 ft | 150 kts | 57° |
| 2026-04-30 11:43 | 40.92246 | 14.36853 | 3820 ft | 165 kts | 56° |
| 2026-04-30 11:44 | 40.92890 | 14.38205 | 4070 ft | 187 kts | 56° |
| 2026-04-30 11:44 | 40.93630 | 14.39757 | 4400 ft | 210 kts | 55° |
| 2026-04-30 11:44 | 40.94423 | 14.41432 | 5165 ft | 217 kts | 56° |
| 2026-04-30 11:44 | 40.95231 | 14.43149 | 5933 ft | 223 kts | 56° |
| 2026-04-30 11:45 | 40.96057 | 14.44908 | 6651 ft | 229 kts | 56° |
| 2026-04-30 11:45 | 40.96908 | 14.46729 | 7341 ft | 236 kts | 56° |
| 2026-04-30 11:45 | 40.97787 | 14.48594 | 8086 ft | 241 kts | 54° |
| 2026-04-30 11:45 | 40.98941 | 14.50171 | 8803 ft | 240 kts | 28° |
| 2026-04-30 11:46 | 41.00515 | 14.50860 | 9514 ft | 240 kts | 1° |
| 2026-04-30 11:46 | 41.02152 | 14.50479 | 10258 ft | 242 kts | 334° |
| 2026-04-30 11:46 | 41.03468 | 14.49115 | 10970 ft | 243 kts | 307° |
| 2026-04-30 11:46 | 41.04409 | 14.47251 | 11712 ft | 245 kts | 303° |
| 2026-04-30 11:47 | 41.05341 | 14.45360 | 12468 ft | 245 kts | 304° |
| 2026-04-30 11:47 | 41.06277 | 14.43470 | 13221 ft | 246 kts | 303° |
| 2026-04-30 11:47 | 41.07222 | 14.41563 | 13921 ft | 249 kts | 303° |
| 2026-04-30 11:47 | 41.08176 | 14.39641 | 14578 ft | 250 kts | 303° |
| 2026-04-30 11:48 | 41.09133 | 14.37712 | 15217 ft | 251 kts | 303° |
| 2026-04-30 11:48 | 41.10097 | 14.35765 | 15867 ft | 253 kts | 302° |
| 2026-04-30 11:48 | 41.11169 | 14.33900 | 16480 ft | 257 kts | 314° |
| 2026-04-30 11:48 | 41.12633 | 14.32416 | 16754 ft | 277 kts | 324° |
| 2026-04-30 11:49 | 41.14324 | 14.31012 | 16892 ft | 297 kts | 325° |
| 2026-04-30 11:49 | 41.16137 | 14.29521 | 17015 ft | 316 kts | 325° |
| 2026-04-30 11:49 | 41.18065 | 14.27941 | 17156 ft | 335 kts | 325° |
| 2026-04-30 11:49 | 41.20097 | 14.26271 | 17371 ft | 349 kts | 325° |
| 2026-04-30 11:50 | 41.22156 | 14.24576 | 17871 ft | 355 kts | 325° |
| 2026-04-30 11:50 | 41.24262 | 14.22836 | 18435 ft | 359 kts | 325° |
| 2026-04-30 11:50 | 41.26388 | 14.21074 | 18965 ft | 362 kts | 325° |
| 2026-04-30 11:50 | 41.28531 | 14.19294 | 19535 ft | 364 kts | 325° |
| 2026-04-30 11:51 | 41.30687 | 14.17499 | 20115 ft | 367 kts | 324° |
| 2026-04-30 11:51 | 41.32855 | 14.15690 | 20715 ft | 369 kts | 324° |
| 2026-04-30 11:51 | 41.35030 | 14.13876 | 21311 ft | 370 kts | 324° |
| 2026-04-30 11:51 | 41.37218 | 14.12050 | 21868 ft | 372 kts | 324° |
| 2026-04-30 11:52 | 41.39418 | 14.10212 | 22385 ft | 375 kts | 324° |
| 2026-04-30 11:52 | 41.41589 | 14.08286 | 22857 ft | 375 kts | 318° |
| 2026-04-30 11:52 | 41.43482 | 14.05911 | 23313 ft | 374 kts | 308° |
| 2026-04-30 11:52 | 41.45014 | 14.03114 | 23800 ft | 374 kts | 298° |
| 2026-04-30 11:53 | 41.46287 | 14.00090 | 24211 ft | 375 kts | 297° |
| 2026-04-30 11:53 | 41.47563 | 13.97048 | 24605 ft | 377 kts | 298° |
| 2026-04-30 11:53 | 41.48848 | 13.93988 | 25031 ft | 378 kts | 298° |
| 2026-04-30 11:53 | 41.50138 | 13.90923 | 25427 ft | 380 kts | 298° |
| 2026-04-30 11:54 | 41.51435 | 13.87845 | 25838 ft | 382 kts | 298° |
| 2026-04-30 11:54 | 41.52738 | 13.84744 | 26248 ft | 383 kts | 298° |
| 2026-04-30 11:54 | 41.54041 | 13.81630 | 26617 ft | 385 kts | 297° |
| 2026-04-30 11:54 | 41.55351 | 13.78495 | 26959 ft | 387 kts | 297° |
| 2026-04-30 11:55 | 41.56664 | 13.75351 | 27314 ft | 389 kts | 297° |
| 2026-04-30 11:55 | 41.57986 | 13.72184 | 27694 ft | 391 kts | 297° |
| 2026-04-30 11:55 | 41.59293 | 13.69051 | 28129 ft | 391 kts | 297° |
| 2026-04-30 11:55 | 41.60618 | 13.65872 | 28540 ft | 392 kts | 297° |
| 2026-04-30 11:56 | 41.61945 | 13.62680 | 28865 ft | 393 kts | 297° |
| 2026-04-30 11:56 | 41.63273 | 13.59479 | 29240 ft | 395 kts | 297° |
| 2026-04-30 11:56 | 41.64607 | 13.56263 | 29644 ft | 395 kts | 297° |
| 2026-04-30 11:56 | 41.65935 | 13.53054 | 30156 ft | 393 kts | 297° |
| 2026-04-30 11:57 | 41.67255 | 13.49862 | 30608 ft | 391 kts | 297° |
| 2026-04-30 11:57 | 41.68569 | 13.46677 | 30991 ft | 391 kts | 297° |
| 2026-04-30 11:57 | 41.69882 | 13.43496 | 31379 ft | 390 kts | 297° |
| 2026-04-30 11:57 | 41.71193 | 13.40321 | 31771 ft | 390 kts | 298° |
| 2026-04-30 11:58 | 41.72505 | 13.37148 | 32198 ft | 389 kts | 298° |
| 2026-04-30 11:58 | 41.73994 | 13.34133 | 32644 ft | 389 kts | 307° |
| 2026-04-30 11:58 | 41.75797 | 13.31428 | 33064 ft | 389 kts | 310° |
| 2026-04-30 11:58 | 41.77640 | 13.28782 | 33486 ft | 388 kts | 310° |
| 2026-04-30 11:59 | 41.79475 | 13.26138 | 33911 ft | 387 kts | 310° |
| 2026-04-30 11:59 | 41.81301 | 13.23503 | 34316 ft | 385 kts | 310° |
| 2026-04-30 11:59 | 41.83246 | 13.21025 | 34658 ft | 386 kts | 317° |
| 2026-04-30 11:59 | 41.85283 | 13.18744 | 35007 ft | 386 kts | 317° |
| 2026-04-30 12:00 | 41.87342 | 13.16442 | 35317 ft | 385 kts | 317° |
| 2026-04-30 12:00 | 41.89397 | 13.14138 | 35587 ft | 384 kts | 317° |
| 2026-04-30 12:00 | 41.91444 | 13.11841 | 35795 ft | 384 kts | 317° |
| 2026-04-30 12:00 | 41.93498 | 13.09535 | 36047 ft | 385 kts | 317° |
| 2026-04-30 12:01 | 41.97633 | 13.04871 | 36114 ft | 393 kts | 317° |
| 2026-04-30 12:01 | 42.01834 | 13.00126 | 36116 ft | 395 kts | 317° |
| 2026-04-30 12:02 | 42.06049 | 12.95365 | 36116 ft | 396 kts | 317° |
| 2026-04-30 12:02 | 42.10268 | 12.90590 | 36111 ft | 396 kts | 317° |
| 2026-04-30 12:03 | 42.16602 | 12.83413 | 36124 ft | 397 kts | 317° |
| 2026-04-30 12:04 | 42.20830 | 12.78613 | 36142 ft | 397 kts | 317° |
| 2026-04-30 12:04 | 42.25048 | 12.73804 | 36136 ft | 397 kts | 317° |
| 2026-04-30 12:05 | 42.28551 | 12.69808 | 36144 ft | 396 kts | 317° |
| 2026-04-30 12:05 | 42.32768 | 12.64999 | 36158 ft | 396 kts | 317° |
| 2026-04-30 12:06 | 42.37659 | 12.59396 | 36150 ft | 396 kts | 317° |
| 2026-04-30 12:06 | 42.41183 | 12.55349 | 36144 ft | 396 kts | 317° |
| 2026-04-30 12:07 | 42.45386 | 12.50521 | 36136 ft | 396 kts | 317° |
| 2026-04-30 12:07 | 42.49561 | 12.45713 | 36134 ft | 396 kts | 317° |
| 2026-04-30 12:08 | 42.53755 | 12.40872 | 36136 ft | 396 kts | 317° |
| 2026-04-30 12:08 | 42.57949 | 12.36020 | 36147 ft | 396 kts | 317° |
| 2026-04-30 12:09 | 42.62140 | 12.31166 | 36165 ft | 396 kts | 317° |
| 2026-04-30 12:09 | 42.66336 | 12.26310 | 36162 ft | 396 kts | 317° |
| 2026-04-30 12:10 | 42.70527 | 12.21458 | 36166 ft | 396 kts | 317° |
| 2026-04-30 12:10 | 42.74718 | 12.16589 | 36169 ft | 396 kts | 317° |
| 2026-04-30 12:11 | 42.78871 | 12.11738 | 36189 ft | 396 kts | 317° |
| 2026-04-30 12:11 | 42.83042 | 12.06857 | 36189 ft | 396 kts | 317° |
| 2026-04-30 12:12 | 42.87220 | 12.01965 | 36175 ft | 396 kts | 317° |
| 2026-04-30 12:12 | 42.91396 | 11.97073 | 36187 ft | 396 kts | 317° |
| 2026-04-30 12:13 | 42.95563 | 11.92175 | 36189 ft | 396 kts | 317° |
| 2026-04-30 12:13 | 42.99735 | 11.87276 | 36199 ft | 395 kts | 316° |
| 2026-04-30 12:14 | 43.03900 | 11.82362 | 36227 ft | 395 kts | 317° |
| 2026-04-30 12:14 | 43.08062 | 11.77449 | 36222 ft | 395 kts | 316° |
| 2026-04-30 12:15 | 43.12222 | 11.72518 | 36214 ft | 395 kts | 316° |
| 2026-04-30 12:15 | 43.16354 | 11.67621 | 36193 ft | 395 kts | 316° |
| 2026-04-30 12:16 | 43.20510 | 11.62683 | 36196 ft | 396 kts | 316° |
| 2026-04-30 12:16 | 43.24567 | 11.57591 | 36216 ft | 395 kts | 313° |
| 2026-04-30 12:17 | 43.30334 | 11.49510 | 36212 ft | 395 kts | 312° |
| 2026-04-30 12:17 | 43.34181 | 11.44108 | 36210 ft | 396 kts | 313° |
| 2026-04-30 12:18 | 43.38058 | 11.38744 | 36211 ft | 396 kts | 313° |
| 2026-04-30 12:18 | 43.41943 | 11.33373 | 36210 ft | 395 kts | 313° |
| 2026-04-30 12:19 | 43.45817 | 11.27996 | 36191 ft | 396 kts | 313° |
| 2026-04-30 12:19 | 43.49665 | 11.22633 | 36202 ft | 396 kts | 313° |
| 2026-04-30 12:20 | 43.53533 | 11.17235 | 36207 ft | 396 kts | 313° |
| 2026-04-30 12:20 | 43.57416 | 11.11824 | 36209 ft | 397 kts | 313° |
| 2026-04-30 12:21 | 43.61290 | 11.06401 | 36223 ft | 397 kts | 313° |
| 2026-04-30 12:21 | 43.65156 | 11.00962 | 36224 ft | 397 kts | 313° |
| 2026-04-30 12:22 | 43.69022 | 10.95520 | 36225 ft | 397 kts | 313° |
| 2026-04-30 12:22 | 43.72891 | 10.90068 | 36234 ft | 397 kts | 313° |
| 2026-04-30 12:23 | 43.76769 | 10.84604 | 36228 ft | 398 kts | 313° |
| 2026-04-30 12:23 | 43.80619 | 10.79167 | 36226 ft | 399 kts | 313° |
| 2026-04-30 12:24 | 43.84496 | 10.73669 | 36220 ft | 399 kts | 313° |
| 2026-04-30 12:24 | 43.88371 | 10.68165 | 36221 ft | 399 kts | 313° |
| 2026-04-30 12:25 | 43.92243 | 10.62656 | 36221 ft | 399 kts | 313° |
| 2026-04-30 12:25 | 43.96122 | 10.57125 | 36193 ft | 400 kts | 313° |
| 2026-04-30 12:26 | 44.00006 | 10.51578 | 36203 ft | 400 kts | 313° |
| 2026-04-30 12:26 | 44.03895 | 10.46016 | 36213 ft | 401 kts | 313° |
| 2026-04-30 12:27 | 44.07757 | 10.40487 | 36221 ft | 401 kts | 313° |
| 2026-04-30 12:27 | 44.11632 | 10.34915 | 36225 ft | 401 kts | 313° |
| 2026-04-30 12:28 | 44.15511 | 10.29330 | 36231 ft | 401 kts | 313° |
| 2026-04-30 12:28 | 44.19405 | 10.23716 | 36202 ft | 404 kts | 313° |
| 2026-04-30 12:29 | 44.23305 | 10.18070 | 36178 ft | 405 kts | 313° |
| 2026-04-30 12:29 | 44.27221 | 10.12397 | 36198 ft | 406 kts | 313° |
| 2026-04-30 12:30 | 44.31138 | 10.06720 | 36230 ft | 406 kts | 313° |
| 2026-04-30 12:30 | 44.35026 | 10.01068 | 36246 ft | 406 kts | 313° |
| 2026-04-30 12:31 | 44.38937 | 9.95373 | 36245 ft | 406 kts | 313° |
| 2026-04-30 12:31 | 44.42853 | 9.89663 | 36256 ft | 406 kts | 313° |
| 2026-04-30 12:32 | 44.46764 | 9.83944 | 36258 ft | 406 kts | 313° |
| 2026-04-30 12:32 | 44.50663 | 9.78207 | 36245 ft | 406 kts | 313° |
| 2026-04-30 12:33 | 44.54560 | 9.72477 | 36250 ft | 406 kts | 313° |
| 2026-04-30 12:33 | 44.58451 | 9.66748 | 36262 ft | 406 kts | 313° |
| 2026-04-30 12:34 | 44.62345 | 9.60992 | 36251 ft | 407 kts | 313° |
| 2026-04-30 12:34 | 44.66255 | 9.55223 | 36241 ft | 408 kts | 313° |
| 2026-04-30 12:35 | 44.70166 | 9.49427 | 36247 ft | 409 kts | 313° |
| 2026-04-30 12:35 | 44.74088 | 9.43602 | 36236 ft | 410 kts | 313° |
| 2026-04-30 12:36 | 44.77988 | 9.37800 | 36248 ft | 411 kts | 313° |
| 2026-04-30 12:36 | 44.81907 | 9.31954 | 36252 ft | 411 kts | 313° |
| 2026-04-30 12:37 | 44.85839 | 9.26088 | 36244 ft | 412 kts | 313° |
| 2026-04-30 12:37 | 44.89776 | 9.20201 | 36243 ft | 413 kts | 313° |
| 2026-04-30 12:38 | 44.93709 | 9.14291 | 36233 ft | 413 kts | 313° |
| 2026-04-30 12:38 | 44.97648 | 9.08368 | 36242 ft | 414 kts | 313° |
| 2026-04-30 12:39 | 45.01581 | 9.02430 | 36289 ft | 414 kts | 313° |
| 2026-04-30 12:39 | 45.05518 | 8.96467 | 36298 ft | 415 kts | 313° |
| 2026-04-30 12:40 | 45.09477 | 8.90483 | 36295 ft | 417 kts | 313° |
| 2026-04-30 12:40 | 45.13449 | 8.84481 | 36277 ft | 418 kts | 313° |
| 2026-04-30 12:41 | 45.17422 | 8.78453 | 36284 ft | 419 kts | 313° |
| 2026-04-30 12:41 | 45.21360 | 8.72432 | 36302 ft | 419 kts | 313° |
| 2026-04-30 12:42 | 45.25330 | 8.66363 | 36320 ft | 420 kts | 313° |
| 2026-04-30 12:42 | 45.29312 | 8.60278 | 36299 ft | 421 kts | 313° |
| 2026-04-30 12:43 | 45.33296 | 8.54160 | 36294 ft | 422 kts | 313° |
| 2026-04-30 12:43 | 45.37289 | 8.48023 | 36290 ft | 423 kts | 313° |
| 2026-04-30 12:44 | 45.41284 | 8.41872 | 36279 ft | 423 kts | 313° |
| 2026-04-30 12:44 | 45.45284 | 8.35697 | 36293 ft | 424 kts | 313° |
| 2026-04-30 12:45 | 45.49256 | 8.29551 | 36301 ft | 425 kts | 313° |
| 2026-04-30 12:45 | 45.53266 | 8.23337 | 36306 ft | 426 kts | 313° |
| 2026-04-30 12:46 | 45.57275 | 8.17106 | 36282 ft | 427 kts | 313° |
| 2026-04-30 12:46 | 45.61295 | 8.10837 | 36295 ft | 428 kts | 313° |
| 2026-04-30 12:47 | 45.65314 | 8.04555 | 36294 ft | 428 kts | 313° |
| 2026-04-30 12:47 | 45.69328 | 7.98263 | 36295 ft | 428 kts | 313° |
| 2026-04-30 12:48 | 45.73348 | 7.91966 | 36283 ft | 429 kts | 313° |
| 2026-04-30 12:48 | 45.77374 | 7.85645 | 36251 ft | 430 kts | 313° |
| 2026-04-30 12:49 | 45.81383 | 7.79325 | 36252 ft | 432 kts | 313° |
| 2026-04-30 12:49 | 45.85420 | 7.72932 | 36251 ft | 433 kts | 313° |
| 2026-04-30 12:50 | 45.89464 | 7.66530 | 36257 ft | 433 kts | 313° |
| 2026-04-30 12:50 | 45.93513 | 7.60111 | 36255 ft | 434 kts | 313° |
| 2026-04-30 12:51 | 45.97557 | 7.53667 | 36232 ft | 435 kts | 313° |
| 2026-04-30 12:51 | 46.01574 | 7.47166 | 36187 ft | 435 kts | 312° |
| 2026-04-30 12:52 | 46.05568 | 7.40624 | 36167 ft | 435 kts | 312° |
| 2026-04-30 12:52 | 46.09564 | 7.34078 | 36158 ft | 435 kts | 312° |
| 2026-04-30 12:53 | 46.13539 | 7.27564 | 36153 ft | 436 kts | 312° |
| 2026-04-30 12:53 | 46.17542 | 7.20986 | 36149 ft | 437 kts | 313° |
| 2026-04-30 12:54 | 46.21554 | 7.14395 | 36128 ft | 437 kts | 313° |
| 2026-04-30 12:54 | 46.25573 | 7.07779 | 36141 ft | 439 kts | 312° |
| 2026-04-30 12:55 | 46.29598 | 7.01127 | 36154 ft | 440 kts | 312° |
| 2026-04-30 12:55 | 46.33623 | 6.94449 | 36168 ft | 440 kts | 312° |
| 2026-04-30 12:56 | 46.37647 | 6.87747 | 36191 ft | 441 kts | 313° |
| 2026-04-30 12:56 | 46.41671 | 6.81045 | 36175 ft | 442 kts | 312° |
| 2026-04-30 12:57 | 46.45684 | 6.74353 | 36189 ft | 443 kts | 312° |
| 2026-04-30 12:57 | 46.49748 | 6.67555 | 36195 ft | 443 kts | 312° |
| 2026-04-30 12:58 | 46.53763 | 6.60822 | 36203 ft | 444 kts | 312° |
| 2026-04-30 12:58 | 46.57798 | 6.54030 | 36211 ft | 444 kts | 312° |
| 2026-04-30 12:59 | 46.61838 | 6.47209 | 36196 ft | 445 kts | 312° |
| 2026-04-30 12:59 | 46.65866 | 6.40381 | 36200 ft | 445 kts | 311° |
| 2026-04-30 13:00 | 46.69210 | 6.34705 | 36194 ft | 445 kts | 311° |
| 2026-04-30 13:00 | 46.73252 | 6.27857 | 36180 ft | 445 kts | 311° |
| 2026-04-30 13:01 | 46.77292 | 6.21004 | 36187 ft | 445 kts | 312° |
| 2026-04-30 13:01 | 46.81317 | 6.14131 | 36170 ft | 445 kts | 312° |
| 2026-04-30 13:02 | 46.85336 | 6.07237 | 36155 ft | 447 kts | 311° |
| 2026-04-30 13:02 | 46.90029 | 5.99186 | 36138 ft | 448 kts | 311° |
| 2026-04-30 13:03 | 46.93425 | 5.93378 | 36147 ft | 449 kts | 314° |
| 2026-04-30 13:03 | 46.98288 | 5.87758 | 36142 ft | 445 kts | 332° |
| 2026-04-30 13:04 | 47.03780 | 5.83544 | 36146 ft | 446 kts | 334° |
| 2026-04-30 13:04 | 47.09237 | 5.79346 | 36144 ft | 446 kts | 334° |
| 2026-04-30 13:05 | 47.14729 | 5.75099 | 36139 ft | 446 kts | 333° |
| 2026-04-30 13:06 | 47.22986 | 5.68705 | 36144 ft | 448 kts | 333° |
| 2026-04-30 13:06 | 47.28498 | 5.64422 | 36146 ft | 448 kts | 334° |
| 2026-04-30 13:07 | 47.34016 | 5.60133 | 36154 ft | 448 kts | 334° |
| 2026-04-30 13:07 | 47.39539 | 5.55841 | 36153 ft | 449 kts | 334° |
| 2026-04-30 13:08 | 47.45054 | 5.51522 | 36167 ft | 449 kts | 334° |
| 2026-04-30 13:08 | 47.50511 | 5.47020 | 36175 ft | 450 kts | 327° |
| 2026-04-30 13:09 | 47.55040 | 5.40620 | 36163 ft | 455 kts | 308° |
| 2026-04-30 13:09 | 47.58799 | 5.33063 | 36147 ft | 457 kts | 308° |
| 2026-04-30 13:10 | 47.62582 | 5.25468 | 36145 ft | 458 kts | 308° |
| 2026-04-30 13:10 | 47.66337 | 5.17901 | 36144 ft | 459 kts | 308° |
| 2026-04-30 13:11 | 47.70113 | 5.10236 | 36159 ft | 460 kts | 308° |
| 2026-04-30 13:11 | 47.73890 | 5.02560 | 36155 ft | 460 kts | 308° |
| 2026-04-30 13:12 | 47.77669 | 4.94878 | 36161 ft | 461 kts | 308° |
| 2026-04-30 13:12 | 47.81453 | 4.87169 | 36155 ft | 461 kts | 308° |
| 2026-04-30 13:13 | 47.87118 | 4.75564 | 36163 ft | 462 kts | 307° |
| 2026-04-30 13:14 | 47.92762 | 4.63923 | 36165 ft | 462 kts | 307° |
| 2026-04-30 13:14 | 47.98385 | 4.52292 | 36161 ft | 463 kts | 307° |
| 2026-04-30 13:15 | 48.04024 | 4.40585 | 36152 ft | 463 kts | 307° |
| 2026-04-30 13:16 | 48.07779 | 4.32765 | 36167 ft | 463 kts | 307° |
| 2026-04-30 13:16 | 48.11520 | 4.24932 | 36178 ft | 463 kts | 307° |
| 2026-04-30 13:17 | 48.17132 | 4.13180 | 36176 ft | 462 kts | 307° |
| 2026-04-30 13:18 | 48.22733 | 4.01397 | 36169 ft | 463 kts | 307° |
| 2026-04-30 13:18 | 48.28923 | 3.90349 | 36167 ft | 461 kts | 315° |
| 2026-04-30 13:19 | 48.33357 | 3.83363 | 36164 ft | 461 kts | 315° |
| 2026-04-30 13:19 | 48.37779 | 3.76374 | 36175 ft | 461 kts | 315° |
| 2026-04-30 13:20 | 48.42194 | 3.69364 | 36160 ft | 461 kts | 315° |
| 2026-04-30 13:20 | 48.46582 | 3.62392 | 36175 ft | 462 kts | 315° |
| 2026-04-30 13:21 | 48.50999 | 3.55359 | 36169 ft | 462 kts | 315° |
| 2026-04-30 13:22 | 48.57624 | 3.44764 | 36166 ft | 462 kts | 315° |
| 2026-04-30 13:22 | 48.64238 | 3.34129 | 36166 ft | 463 kts | 315° |
| 2026-04-30 13:23 | 48.70831 | 3.23504 | 36177 ft | 464 kts | 315° |
| 2026-04-30 13:24 | 48.79647 | 3.09231 | 36176 ft | 464 kts | 315° |
| 2026-04-30 13:25 | 48.89537 | 2.96970 | 36157 ft | 461 kts | 332° |
| 2026-04-30 13:26 | 49.03468 | 2.84801 | 36172 ft | 462 kts | 332° |
| 2026-04-30 13:28 | 49.17348 | 2.72552 | 36185 ft | 462 kts | 332° |
| 2026-04-30 13:28 | 49.25685 | 2.65157 | 36186 ft | 461 kts | 332° |
| 2026-04-30 13:29 | 49.36790 | 2.55271 | 36165 ft | 462 kts | 331° |
| 2026-04-30 13:31 | 49.50698 | 2.42815 | 36169 ft | 463 kts | 331° |
| 2026-04-30 13:32 | 49.64742 | 2.30844 | 36183 ft | 462 kts | 333° |
| 2026-04-30 13:33 | 49.76036 | 2.21298 | 36184 ft | 463 kts | 333° |
| 2026-04-30 13:34 | 49.84501 | 2.14063 | 36192 ft | 464 kts | 333° |
| 2026-04-30 13:35 | 49.95803 | 2.04349 | 36200 ft | 464 kts | 333° |
| 2026-04-30 13:36 | 50.07103 | 1.94593 | 36203 ft | 465 kts | 332° |
| 2026-04-30 13:36 | 50.15527 | 1.87234 | 36205 ft | 465 kts | 329° |
| 2026-04-30 13:37 | 50.22824 | 1.77231 | 36209 ft | 467 kts | 316° |
| 2026-04-30 13:38 | 50.29793 | 1.66601 | 36207 ft | 467 kts | 316° |
| 2026-04-30 13:39 | 50.39064 | 1.52395 | 36213 ft | 465 kts | 316° |
| 2026-04-30 13:40 | 50.45984 | 1.41721 | 36209 ft | 465 kts | 316° |
| 2026-04-30 13:40 | 50.50583 | 1.34562 | 36216 ft | 465 kts | 314° |
| 2026-04-30 13:41 | 50.54986 | 1.27189 | 36207 ft | 466 kts | 312° |
| 2026-04-30 13:41 | 50.59356 | 1.19649 | 36204 ft | 466 kts | 313° |
| 2026-04-30 13:42 | 50.63897 | 1.12352 | 36213 ft | 466 kts | 315° |
| 2026-04-30 13:42 | 50.70840 | 1.01600 | 36220 ft | 467 kts | 315° |
| 2026-04-30 13:43 | 50.75431 | 0.94341 | 36226 ft | 467 kts | 315° |
| 2026-04-30 13:43 | 50.79988 | 0.87031 | 36224 ft | 468 kts | 314° |
| 2026-04-30 13:44 | 50.84555 | 0.79693 | 36218 ft | 469 kts | 314° |
| 2026-04-30 13:44 | 50.86845 | 0.76020 | 36087 ft | 468 kts | 314° |
| 2026-04-30 13:44 | 50.89130 | 0.72357 | 35016 ft | 478 kts | 314° |
| 2026-04-30 13:45 | 50.93903 | 0.64697 | 32659 ft | 496 kts | 314° |
| 2026-04-30 13:45 | 50.96327 | 0.60795 | 31761 ft | 497 kts | 314° |
| 2026-04-30 13:45 | 50.98751 | 0.56881 | 30912 ft | 496 kts | 314° |
| 2026-04-30 13:46 | 51.01165 | 0.52978 | 30179 ft | 494 kts | 314° |
| 2026-04-30 13:46 | 51.03561 | 0.49097 | 29417 ft | 490 kts | 314° |
| 2026-04-30 13:46 | 51.05932 | 0.45251 | 28731 ft | 485 kts | 314° |
| 2026-04-30 13:46 | 51.08297 | 0.41446 | 28026 ft | 482 kts | 315° |
| 2026-04-30 13:47 | 51.10680 | 0.37736 | 27355 ft | 477 kts | 316° |
| 2026-04-30 13:47 | 51.13070 | 0.34109 | 26713 ft | 473 kts | 316° |
| 2026-04-30 13:47 | 51.15423 | 0.30577 | 26428 ft | 452 kts | 316° |
| 2026-04-30 13:47 | 51.17639 | 0.27250 | 26296 ft | 426 kts | 316° |
| 2026-04-30 13:48 | 51.19754 | 0.24055 | 25883 ft | 412 kts | 316° |
| 2026-04-30 13:48 | 51.21811 | 0.20922 | 25265 ft | 405 kts | 316° |
| 2026-04-30 13:48 | 51.23824 | 0.17833 | 24589 ft | 400 kts | 316° |
| 2026-04-30 13:48 | 51.25820 | 0.14751 | 23904 ft | 396 kts | 316° |
| 2026-04-30 13:49 | 51.27790 | 0.11699 | 23110 ft | 392 kts | 316° |
| 2026-04-30 13:49 | 51.29728 | 0.08691 | 22450 ft | 384 kts | 316° |
| 2026-04-30 13:49 | 51.31580 | 0.05782 | 22294 ft | 362 kts | 311° |
| 2026-04-30 13:49 | 51.32906 | 0.02514 | 22021 ft | 343 kts | 288° |
| 2026-04-30 13:50 | 51.33403 | -0.01113 | 21492 ft | 331 kts | 272° |
| 2026-04-30 13:50 | 51.33844 | -0.08369 | 20378 ft | 324 kts | 271° |
| 2026-04-30 13:50 | 51.34051 | -0.11938 | 19856 ft | 320 kts | 271° |
| 2026-04-30 13:51 | 51.34255 | -0.15475 | 19350 ft | 317 kts | 271° |
| 2026-04-30 13:51 | 51.34455 | -0.18961 | 18859 ft | 313 kts | 271° |
| 2026-04-30 13:51 | 51.34658 | -0.22408 | 18352 ft | 309 kts | 271° |
| 2026-04-30 13:51 | 51.34860 | -0.25816 | 17783 ft | 306 kts | 271° |
| 2026-04-30 13:52 | 51.34993 | -0.28058 | 17403 ft | 305 kts | 271° |
| 2026-04-30 13:52 | 51.35257 | -0.32556 | 16643 ft | 302 kts | 271° |
| 2026-04-30 13:52 | 51.35386 | -0.34775 | 16270 ft | 301 kts | 271° |
| 2026-04-30 13:52 | 51.35578 | -0.38102 | 15724 ft | 300 kts | 271° |
| 2026-04-30 13:53 | 51.35767 | -0.41408 | 15185 ft | 298 kts | 271° |
| 2026-04-30 13:53 | 51.35954 | -0.44704 | 14657 ft | 297 kts | 272° |
| 2026-04-30 13:53 | 51.36141 | -0.47985 | 14142 ft | 295 kts | 272° |
| 2026-04-30 13:53 | 51.36328 | -0.51252 | 13582 ft | 294 kts | 272° |
| 2026-04-30 13:54 | 51.36512 | -0.54499 | 13037 ft | 292 kts | 272° |
| 2026-04-30 13:54 | 51.36693 | -0.57717 | 12512 ft | 289 kts | 271° |
| 2026-04-30 13:54 | 51.36869 | -0.60916 | 11978 ft | 287 kts | 271° |
| 2026-04-30 13:54 | 51.37044 | -0.64100 | 11338 ft | 290 kts | 271° |
| 2026-04-30 13:55 | 51.37165 | -0.67350 | 10593 ft | 294 kts | 267° |
| 2026-04-30 13:55 | 51.37207 | -0.70563 | 9788 ft | 291 kts | 266° |
| 2026-04-30 13:55 | 51.37234 | -0.73774 | 8967 ft | 287 kts | 270° |
| 2026-04-30 13:55 | 51.37842 | -0.76798 | 8134 ft | 289 kts | 304° |
| 2026-04-30 13:56 | 51.39373 | -0.78795 | 7338 ft | 286 kts | 341° |
| 2026-04-30 13:56 | 51.41289 | -0.79416 | 6607 ft | 279 kts | 357° |
| 2026-04-30 13:56 | 51.43211 | -0.79534 | 5865 ft | 274 kts | 2° |
| 2026-04-30 13:56 | 51.45096 | -0.79524 | 5146 ft | 268 kts | 7° |
| 2026-04-30 13:57 | 51.46826 | -0.78791 | 4400 ft | 249 kts | 41° |
| 2026-04-30 13:57 | 51.47812 | -0.76757 | 3799 ft | 224 kts | 80° |
| 2026-04-30 13:57 | 51.47971 | -0.74350 | 3204 ft | 215 kts | 92° |
| 2026-04-30 13:57 | 51.47825 | -0.72033 | 2941 ft | 203 kts | 101° |
| 2026-04-30 13:58 | 51.47687 | -0.69810 | 2712 ft | 201 kts | 94° |
| 2026-04-30 13:58 | 51.47669 | -0.65337 | 2180 ft | 194 kts | 91° |
| 2026-04-30 13:58 | 51.47680 | -0.63240 | 1928 ft | 182 kts | 91° |
| 2026-04-30 13:59 | 51.47690 | -0.61256 | 1688 ft | 175 kts | 92° |
| 2026-04-30 13:59 | 51.47700 | -0.59358 | 1488 ft | 163 kts | 92° |
| 2026-04-30 13:59 | 51.47709 | -0.57610 | 1254 ft | 146 kts | 93° |
| 2026-04-30 13:59 | 51.47716 | -0.56101 | 1051 ft | 133 kts | 93° |
| 2026-04-30 14:00 | 51.47720 | -0.54640 | 838 ft | 131 kts | 92° |
| 2026-04-30 14:00 | 51.47733 | -0.51739 | 498 ft | 128 kts | 89° |
| 2026-04-30 14:00 | 51.47734 | -0.50348 | 354 ft | 126 kts | 87° |
| 2026-04-30 14:01 | 51.47750 | -0.48921 | 198 ft | 128 kts | 88° |
| 2026-04-30 14:01 | 51.47754 | -0.47515 | 87 ft | 117 kts | 89° |
| 2026-04-30 14:01 | 51.47758 | -0.46470 | 91 ft | 61 kts | 90° |
| 2026-04-30 14:01 | 51.47710 | -0.46157 | 86 ft | 23 kts | 142° |
| 2026-04-30 14:02 | 51.47610 | -0.46087 | 86 ft | 11 kts | 221° |
| 2026-04-30 14:02 | 51.47593 | -0.46223 | 86 ft | 15 kts | 268° |
| 2026-04-30 14:02 | 51.47593 | -0.46421 | 86 ft | 20 kts | 270° |
| 2026-04-30 14:02 | 51.47593 | -0.46679 | 86 ft | 26 kts | 270° |
| 2026-04-30 14:03 | 51.47584 | -0.46917 | 88 ft | 17 kts | 262° |
| 2026-04-30 14:03 | 51.47583 | -0.47138 | 90 ft | 22 kts | 269° |
| 2026-04-30 14:03 | 51.47581 | -0.47354 | 88 ft | 21 kts | 270° |
| 2026-04-30 14:03 | 51.47581 | -0.47616 | 90 ft | 26 kts | 270° |
| 2026-04-30 14:04 | 51.47581 | -0.47850 | 90 ft | 21 kts | 270° |
| 2026-04-30 14:04 | 51.47580 | -0.48084 | 89 ft | 21 kts | 270° |
| 2026-04-30 14:04 | 51.47578 | -0.48317 | 88 ft | 17 kts | 268° |
| 2026-04-30 14:04 | 51.47557 | -0.48469 | 90 ft | 14 kts | 214° |
| 2026-04-30 14:05 | 51.47452 | -0.48476 | 86 ft | 17 kts | 178° |
| 2026-04-30 14:05 | 51.47348 | -0.48473 | 86 ft | 13 kts | 179° |
| 2026-04-30 14:05 | 51.47277 | -0.48484 | 87 ft | 8 kts | 214° |
| 2026-04-30 14:05 | 51.47272 | -0.48526 | 89 ft | 4 kts | 269° |
| 2026-04-30 14:06 | 51.47272 | -0.48544 | 87 ft | 4 kts | 267° |
| 2026-04-30 14:06 | 51.47271 | -0.48586 | 89 ft | 0 kts | 269° |